sensor_id;sensor_type;location;lat;lon;timestamp;P1;durP1;ratioP1;P2;durP2;ratioP2
77168;SDS011;66281;45.114;20.730;2023-04-03T00:03:01;6.87;;;4.03;;
77168;SDS011;66281;45.114;20.730;2023-04-03T00:13:02;6.32;;;4.00;;
77168;SDS011;66281;45.114;20.730;2023-04-03T00:23:03;5.68;;;3.88;;
77168;SDS011;66281;45.114;20.730;2023-04-03T00:33:03;6.10;;;3.70;;
77168;SDS011;66281;45.114;20.730;2023-04-03T00:43:09;8.38;;;4.90;;
77168;SDS011;66281;45.114;20.730;2023-04-03T00:53:14;6.17;;;4.47;;
77168;SDS011;66281;45.114;20.730;2023-04-03T01:03:17;14.47;;;8.17;;
77168;SDS011;66281;45.114;20.730;2023-04-03T01:13:22;9.40;;;6.13;;
77168;SDS011;66281;45.114;20.730;2023-04-03T01:33:38;5.20;;;4.13;;
77168;SDS011;66281;45.114;20.730;2023-04-03T01:43:39;6.37;;;5.37;;
77168;SDS011;66281;45.114;20.730;2023-04-03T01:53:40;6.33;;;4.10;;
77168;SDS011;66281;45.114;20.730;2023-04-03T02:03:41;7.50;;;4.68;;
77168;SDS011;66281;45.114;20.730;2023-04-03T02:13:41;6.93;;;4.60;;
77168;SDS011;66281;45.114;20.730;2023-04-03T02:23:42;9.83;;;5.03;;
77168;SDS011;66281;45.114;20.730;2023-04-03T02:33:43;7.90;;;4.90;;
77168;SDS011;66281;45.114;20.730;2023-04-03T02:43:46;8.82;;;5.38;;
77168;SDS011;66281;45.114;20.730;2023-04-03T02:53:47;9.33;;;5.23;;
77168;SDS011;66281;45.114;20.730;2023-04-03T03:03:52;8.83;;;4.90;;
77168;SDS011;66281;45.114;20.730;2023-04-03T03:13:52;12.70;;;6.25;;
77168;SDS011;66281;45.114;20.730;2023-04-03T03:23:53;14.75;;;7.55;;
77168;SDS011;66281;45.114;20.730;2023-04-03T03:33:54;15.00;;;8.37;;
77168;SDS011;66281;45.114;20.730;2023-04-03T03:43:56;11.03;;;6.00;;
77168;SDS011;66281;45.114;20.730;2023-04-03T03:53:57;10.43;;;5.80;;
77168;SDS011;66281;45.114;20.730;2023-04-03T04:03:58;6.88;;;4.45;;
77168;SDS011;66281;45.114;20.730;2023-04-03T04:14:03;8.03;;;4.40;;
77168;SDS011;66281;45.114;20.730;2023-04-03T04:24:05;6.90;;;3.63;;
77168;SDS011;66281;45.114;20.730;2023-04-03T04:34:06;5.97;;;3.43;;
77168;SDS011;66281;45.114;20.730;2023-04-03T04:44:07;8.07;;;4.07;;
77168;SDS011;66281;45.114;20.730;2023-04-03T04:54:09;8.02;;;4.05;;
77168;SDS011;66281;45.114;20.730;2023-04-03T05:04:10;8.03;;;4.63;;
77168;SDS011;66281;45.114;20.730;2023-04-03T05:14:12;9.63;;;6.40;;
77168;SDS011;66281;45.114;20.730;2023-04-03T05:24:14;9.90;;;6.05;;
77168;SDS011;66281;45.114;20.730;2023-04-03T05:34:17;14.80;;;7.17;;
77168;SDS011;66281;45.114;20.730;2023-04-03T05:44:19;13.23;;;7.20;;
77168;SDS011;66281;45.114;20.730;2023-04-03T05:54:23;12.57;;;5.80;;
77168;SDS011;66281;45.114;20.730;2023-04-03T06:04:30;11.97;;;6.20;;
77168;SDS011;66281;45.114;20.730;2023-04-03T06:14:31;11.90;;;6.43;;
77168;SDS011;66281;45.114;20.730;2023-04-03T06:24:31;12.90;;;5.40;;
77168;SDS011;66281;45.114;20.730;2023-04-03T06:34:32;10.40;;;5.90;;
77168;SDS011;66281;45.114;20.730;2023-04-03T06:44:33;14.38;;;7.35;;
77168;SDS011;66281;45.114;20.730;2023-04-03T06:54:33;10.00;;;4.97;;
77168;SDS011;66281;45.114;20.730;2023-04-03T07:04:34;19.33;;;9.05;;
77168;SDS011;66281;45.114;20.730;2023-04-03T07:14:34;23.67;;;10.00;;
77168;SDS011;66281;45.114;20.730;2023-04-03T07:24:35;22.00;;;9.65;;
77168;SDS011;66281;45.114;20.730;2023-04-03T07:34:35;17.63;;;7.82;;
77168;SDS011;66281;45.114;20.730;2023-04-03T07:44:36;34.15;;;14.80;;
77168;SDS011;66281;45.114;20.730;2023-04-03T07:54:36;14.10;;;7.57;;
77168;SDS011;66281;45.114;20.730;2023-04-03T08:04:37;14.60;;;7.97;;
77168;SDS011;66281;45.114;20.730;2023-04-03T08:14:38;13.07;;;6.30;;
77168;SDS011;66281;45.114;20.730;2023-04-03T08:24:38;21.65;;;9.38;;
77168;SDS011;66281;45.114;20.730;2023-04-03T08:34:39;11.73;;;6.68;;
77168;SDS011;66281;45.114;20.730;2023-04-03T08:44:55;62.83;;;28.97;;
77168;SDS011;66281;45.114;20.730;2023-04-03T08:55:04;69.55;;;40.45;;
77168;SDS011;66281;45.114;20.730;2023-04-03T09:05:29;90.80;;;47.03;;
77168;SDS011;66281;45.114;20.730;2023-04-03T09:15:32;142.10;;;43.53;;
77168;SDS011;66281;45.114;20.730;2023-04-03T09:25:34;111.97;;;33.80;;
77168;SDS011;66281;45.114;20.730;2023-04-03T09:35:37;24.30;;;8.43;;
77168;SDS011;66281;45.114;20.730;2023-04-03T09:45:37;68.10;;;18.03;;
77168;SDS011;66281;45.114;20.730;2023-04-03T09:55:42;29.50;;;9.77;;
77168;SDS011;66281;45.114;20.730;2023-04-03T10:05:43;23.67;;;8.30;;
77168;SDS011;66281;45.114;20.730;2023-04-03T10:15:45;14.10;;;6.77;;
77168;SDS011;66281;45.114;20.730;2023-04-03T10:36:10;14.90;;;6.33;;
77168;SDS011;66281;45.114;20.730;2023-04-03T10:46:32;23.60;;;8.80;;
77168;SDS011;66281;45.114;20.730;2023-04-03T11:06:49;14.33;;;6.10;;
77168;SDS011;66281;45.114;20.730;2023-04-03T11:17:01;12.33;;;6.97;;
77168;SDS011;66281;45.114;20.730;2023-04-03T11:27:17;11.93;;;5.70;;
77168;SDS011;66281;45.114;20.730;2023-04-03T11:47:47;12.70;;;6.70;;
77168;SDS011;66281;45.114;20.730;2023-04-03T12:28:42;6.13;;;3.40;;
77168;SDS011;66281;45.114;20.730;2023-04-03T12:49:41;9.20;;;4.37;;
77168;SDS011;66281;45.114;20.730;2023-04-03T12:59:44;13.87;;;6.37;;
77168;SDS011;66281;45.114;20.730;2023-04-03T13:09:44;12.33;;;6.40;;
77168;SDS011;66281;45.114;20.730;2023-04-03T13:19:55;17.23;;;8.17;;
77168;SDS011;66281;45.114;20.730;2023-04-03T13:40:19;17.75;;;8.55;;
77168;SDS011;66281;45.114;20.730;2023-04-03T13:50:26;18.05;;;8.25;;
77168;SDS011;66281;45.114;20.730;2023-04-03T14:10:36;9.43;;;5.23;;
77168;SDS011;66281;45.114;20.730;2023-04-03T14:20:38;8.43;;;4.43;;
77168;SDS011;66281;45.114;20.730;2023-04-03T14:30:39;7.93;;;4.80;;
77168;SDS011;66281;45.114;20.730;2023-04-03T14:40:41;10.52;;;5.10;;
77168;SDS011;66281;45.114;20.730;2023-04-03T14:50:41;12.27;;;5.27;;
77168;SDS011;66281;45.114;20.730;2023-04-03T15:00:42;13.07;;;5.93;;
77168;SDS011;66281;45.114;20.730;2023-04-03T15:10:43;25.30;;;11.55;;
77168;SDS011;66281;45.114;20.730;2023-04-03T15:20:44;33.73;;;13.40;;
77168;SDS011;66281;45.114;20.730;2023-04-03T15:30:45;36.08;;;13.70;;
77168;SDS011;66281;45.114;20.730;2023-04-03T15:40:46;22.10;;;9.67;;
77168;SDS011;66281;45.114;20.730;2023-04-03T15:50:46;23.20;;;7.83;;
77168;SDS011;66281;45.114;20.730;2023-04-03T16:00:47;20.02;;;7.45;;
77168;SDS011;66281;45.114;20.730;2023-04-03T16:10:47;22.27;;;7.13;;
77168;SDS011;66281;45.114;20.730;2023-04-03T16:20:48;11.50;;;5.83;;
77168;SDS011;66281;45.114;20.730;2023-04-03T16:30:49;13.05;;;5.15;;
77168;SDS011;66281;45.114;20.730;2023-04-03T16:40:50;15.03;;;5.60;;
77168;SDS011;66281;45.114;20.730;2023-04-03T16:50:50;11.23;;;4.30;;
77168;SDS011;66281;45.114;20.730;2023-04-03T17:00:51;21.43;;;7.93;;
77168;SDS011;66281;45.114;20.730;2023-04-03T17:10:51;27.77;;;12.35;;
77168;SDS011;66281;45.114;20.730;2023-04-03T17:20:52;27.48;;;6.85;;
77168;SDS011;66281;45.114;20.730;2023-04-03T17:30:53;33.28;;;14.68;;
77168;SDS011;66281;45.114;20.730;2023-04-03T17:40:57;19.93;;;7.93;;
77168;SDS011;66281;45.114;20.730;2023-04-03T17:51:02;22.33;;;8.13;;
77168;SDS011;66281;45.114;20.730;2023-04-03T18:01:14;15.82;;;5.78;;
77168;SDS011;66281;45.114;20.730;2023-04-03T18:11:20;17.70;;;6.20;;
77168;SDS011;66281;45.114;20.730;2023-04-03T18:21:22;21.97;;;7.13;;
77168;SDS011;66281;45.114;20.730;2023-04-03T18:31:22;17.50;;;5.97;;
77168;SDS011;66281;45.114;20.730;2023-04-03T18:41:26;15.18;;;6.07;;
77168;SDS011;66281;45.114;20.730;2023-04-03T18:51:28;27.57;;;7.00;;
77168;SDS011;66281;45.114;20.730;2023-04-03T19:01:28;15.63;;;5.73;;
77168;SDS011;66281;45.114;20.730;2023-04-03T19:11:29;24.23;;;7.57;;
77168;SDS011;66281;45.114;20.730;2023-04-03T19:21:30;16.17;;;5.43;;
77168;SDS011;66281;45.114;20.730;2023-04-03T19:31:30;18.88;;;5.53;;
77168;SDS011;66281;45.114;20.730;2023-04-03T19:41:32;26.90;;;5.93;;
77168;SDS011;66281;45.114;20.730;2023-04-03T19:51:35;11.73;;;4.53;;
77168;SDS011;66281;45.114;20.730;2023-04-03T20:01:35;16.70;;;5.20;;
77168;SDS011;66281;45.114;20.730;2023-04-03T20:11:37;23.65;;;4.88;;
77168;SDS011;66281;45.114;20.730;2023-04-03T20:21:38;14.13;;;4.30;;
77168;SDS011;66281;45.114;20.730;2023-04-03T20:31:39;20.92;;;4.90;;
77168;SDS011;66281;45.114;20.730;2023-04-03T20:41:40;16.50;;;5.17;;
77168;SDS011;66281;45.114;20.730;2023-04-03T20:51:40;16.40;;;3.75;;
77168;SDS011;66281;45.114;20.730;2023-04-03T21:01:41;16.43;;;3.70;;
77168;SDS011;66281;45.114;20.730;2023-04-03T21:22:20;6.43;;;2.73;;
77168;SDS011;66281;45.114;20.730;2023-04-03T21:32:20;12.68;;;3.33;;
77168;SDS011;66281;45.114;20.730;2023-04-03T21:42:21;9.30;;;3.67;;
77168;SDS011;66281;45.114;20.730;2023-04-03T21:52:22;9.02;;;3.60;;
77168;SDS011;66281;45.114;20.730;2023-04-03T22:02:22;11.02;;;3.00;;
77168;SDS011;66281;45.114;20.730;2023-04-03T22:12:24;8.47;;;3.70;;
77168;SDS011;66281;45.114;20.730;2023-04-03T22:22:24;11.25;;;3.15;;
77168;SDS011;66281;45.114;20.730;2023-04-03T22:32:25;6.27;;;3.00;;
77168;SDS011;66281;45.114;20.730;2023-04-03T22:42:25;12.75;;;3.80;;
77168;SDS011;66281;45.114;20.730;2023-04-03T22:52:26;13.95;;;5.65;;
77168;SDS011;66281;45.114;20.730;2023-04-03T23:02:27;12.17;;;4.50;;
77168;SDS011;66281;45.114;20.730;2023-04-03T23:12:28;38.40;;;13.82;;
77168;SDS011;66281;45.114;20.730;2023-04-03T23:22:28;13.93;;;6.82;;
77168;SDS011;66281;45.114;20.730;2023-04-03T23:32:29;13.03;;;6.13;;
77168;SDS011;66281;45.114;20.730;2023-04-03T23:42:29;10.83;;;4.07;;
77168;SDS011;66281;45.114;20.730;2023-04-03T23:52:29;10.68;;;3.38;;
